Time;durP1;ratioP1;P1;durP2;ratioP2;P2;SDS_P1;SDS_P2;PMS_P1;PMS_P2;Temp;Humidity;BMP_temperature;BMP_pressure;BME280_temperature;BME280_humidity;BME280_pressure;Samples;Min_cycle;Max_cycle;Signal;HPM_P1;HPM_P2
2021/12/16 00:04:08;;;;;;;44.80;33.95;;;;;;;4.15;65.60;102852.94;4995420;28;20053;-66
2021/12/16 00:09:05;;;;;;;;;;;;;;;4.14;65.24;102856.41;4996384;28;20046;-61
2021/12/16 00:20:11;;;;;;;40.45;31.40;;;;;;;4.15;65.00;102858.16;4995670;28;20053;-61
2021/12/16 00:33:33;;;;;;;45.72;33.85;;;;;;;4.09;65.63;102854.66;4995605;28;20049;-67
2021/12/16 00:36:02;;;;;;;44.38;32.25;;;;;;;4.06;65.53;102852.06;4995389;28;20050;-60
2021/12/16 00:38:32;;;;;;;43.35;31.75;;;;;;;4.04;65.46;102845.13;4994626;28;20049;-63
2021/12/16 00:41:00;;;;;;;45.58;33.97;;;;;;;3.99;65.66;102850.28;4995176;28;20060;-62
2021/12/16 00:43:54;;;;;;;45.95;33.67;;;;;;;3.98;65.32;102851.13;4995351;28;20046;-64
2021/12/16 00:54:12;;;;;;;45.20;33.25;;;;;;;3.83;65.10;102851.06;4994972;28;20054;-69
2021/12/16 00:56:53;;;;;;;44.03;32.25;;;;;;;3.80;65.24;102849.31;4993936;28;20046;-62
2021/12/16 00:59:21;;;;;;;45.72;33.95;;;;;;;3.80;65.09;102841.53;4995093;28;20042;-61
2021/12/16 01:05:01;;;;;;;42.25;33.60;;;;;;;3.76;65.06;102847.56;4994927;28;20046;-61
2021/12/16 01:35:08;;;;;;;44.90;33.30;;;;;;;3.60;65.06;102863.03;4993936;28;20104;-61
2021/12/16 01:40:37;;;;;;;44.70;32.92;;;;;;;3.54;64.91;102864.72;4994510;28;20042;-61
2021/12/16 01:51:20;;;;;;;39.13;31.10;;;;;;;3.57;65.17;102865.63;4994035;28;20108;-64
2021/12/16 01:54:25;;;;;;;35.60;30.27;;;;;;;3.59;65.01;102865.63;4994134;28;20145;-61
2021/12/16 01:56:52;;;;;;;43.45;33.60;;;;;;;3.57;65.25;102864.75;4993885;28;20046;-61
2021/12/16 01:59:21;;;;;;;47.55;36.80;;;;;;;3.53;65.23;102870.75;4993907;28;20049;-61
2021/12/16 02:01:48;;;;;;;46.45;35.38;;;;;;;3.48;65.06;102865.56;4992841;28;20050;-61
2021/12/16 02:04:25;;;;;;;41.97;33.72;;;;;;;3.45;65.09;102873.31;4993708;28;20046;-60
2021/12/16 02:09:29;;;;;;;42.20;34.10;;;;;;;3.37;65.04;102865.47;4993783;28;20065;-60
2021/12/16 02:12:11;;;;;;;44.63;35.25;;;;;;;3.37;64.74;102867.19;4993791;28;20097;-61
2021/12/16 02:38:49;;;;;;;45.42;36.30;;;;;;;3.26;64.32;102861.91;4991209;28;20051;-61
2021/12/16 02:41:17;;;;;;;45.00;35.75;;;;;;;3.22;64.10;102861.00;4993356;28;20100;-61
2021/12/16 02:49:05;;;;;;;45.97;37.50;;;;;;;3.17;64.03;102856.66;4992983;28;20050;-61
2021/12/16 02:51:34;;;;;;;46.90;37.08;;;;;;;3.13;64.33;102849.72;4993053;28;20462;-60
2021/12/16 02:54:05;;;;;;;47.92;36.92;;;;;;;3.10;64.10;102856.59;4991843;28;20487;-68
2021/12/16 02:56:32;;;;;;;47.78;38.13;;;;;;;3.09;64.11;102852.25;4992891;28;20050;-61
2021/12/16 02:59:00;;;;;;;46.97;38.30;;;;;;;3.12;64.05;102851.41;4992825;28;20368;-61
2021/12/16 03:01:33;;;;;;;45.70;36.35;;;;;;;3.11;64.10;102854.84;4993084;28;20061;-61
2021/12/16 03:04:04;;;;;;;46.33;36.78;;;;;;;3.06;63.85;102856.53;4992938;28;20053;-61
2021/12/16 03:06:32;;;;;;;47.25;36.40;;;;;;;3.05;64.03;102849.66;4993172;28;20069;-62
2021/12/16 03:09:03;;;;;;;48.75;37.58;;;;;;;3.06;63.90;102847.06;4992884;28;20100;-68
2021/12/16 03:19:43;;;;;;;48.53;37.15;;;;;;;3.00;63.99;102852.19;4992254;28;20043;-61
2021/12/16 03:22:20;;;;;;;48.95;36.65;;;;;;;3.00;64.14;102854.78;4992547;28;20051;-63
2021/12/16 03:27:57;;;;;;;46.95;37.65;;;;;;;2.91;64.13;102849.53;4992738;28;20057;-63
2021/12/16 03:33:13;;;;;;;48.75;37.95;;;;;;;2.94;63.84;102846.94;4992383;28;20046;-62
2021/12/16 03:38:22;;;;;;;44.90;37.78;;;;;;;2.92;63.93;102840.84;4992490;28;20371;-63
2021/12/16 03:40:51;;;;;;;46.35;38.30;;;;;;;2.88;63.98;102836.50;4992574;28;20050;-63
2021/12/16 03:43:19;;;;;;;46.47;38.38;;;;;;;2.86;64.01;102833.06;4992481;28;20553;-63
2021/12/16 03:48:48;;;;;;;49.03;38.80;;;;;;;2.84;64.10;102832.16;4992526;28;20594;-68
2021/12/16 03:51:20;;;;;;;48.63;39.08;;;;;;;2.86;64.15;102830.47;4992643;28;20105;-62
2021/12/16 03:53:50;;;;;;;50.65;37.90;;;;;;;2.89;64.02;102827.88;4992524;28;20042;-62
2021/12/16 03:56:18;;;;;;;49.80;38.25;;;;;;;2.92;64.14;102827.91;4992563;28;20054;-63
2021/12/16 03:58:46;;;;;;;47.63;37.30;;;;;;;2.91;64.37;102831.38;4992295;28;20070;-62
2021/12/16 04:01:17;;;;;;;48.40;38.42;;;;;;;2.92;64.09;102833.97;4991304;28;20065;-63
2021/12/16 04:03:44;;;;;;;50.83;39.25;;;;;;;2.93;63.97;102829.63;4988213;28;20521;-69
2021/12/16 04:06:11;;;;;;;52.55;38.45;;;;;;;2.89;64.09;102827.88;4975783;28;20047;-70
2021/12/16 04:08:39;;;;;;;54.33;39.72;;;;;;;2.88;63.83;102826.13;4989091;28;20047;-63
2021/12/16 04:11:19;;;;;;;47.30;37.75;;;;;;;2.83;64.28;102830.41;4988715;28;20046;-70
2021/12/16 04:14:00;;;;;;;49.20;37.45;;;;;;;2.84;64.21;102822.63;4989195;28;20050;-63
2021/12/16 04:16:40;;;;;;;48.95;37.33;;;;;;;2.87;64.23;102819.19;4988021;28;20042;-63
2021/12/16 04:19:11;;;;;;;47.47;37.22;;;;;;;2.89;64.10;102814.91;4988958;28;20050;-64
2021/12/16 04:21:51;;;;;;;46.70;37.05;;;;;;;2.90;64.23;102801.09;4988942;28;20046;-63
2021/12/16 04:24:18;;;;;;;45.15;36.70;;;;;;;2.87;64.17;102814.03;4989047;28;20050;-62
2021/12/16 04:26:48;;;;;;;48.10;37.42;;;;;;;2.81;64.28;102808.81;4989116;28;20050;-62
2021/12/16 04:29:17;;;;;;;50.10;38.47;;;;;;;2.77;64.31;102802.72;4988972;28;20051;-62
2021/12/16 04:31:44;;;;;;;49.72;37.90;;;;;;;2.76;64.40;102808.75;4991299;28;20106;-63
2021/12/16 04:34:12;;;;;;;49.65;38.65;;;;;;;2.78;64.20;102807.03;4992369;28;20085;-63
2021/12/16 04:36:39;;;;;;;49.88;38.50;;;;;;;2.78;64.13;102796.66;4992168;28;20228;-64
2021/12/16 04:39:10;;;;;;;49.15;37.13;;;;;;;2.78;64.08;102794.94;4992363;28;20054;-63
2021/12/16 04:41:38;;;;;;;47.70;37.13;;;;;;;2.76;64.02;102796.66;4992445;28;20050;-63
2021/12/16 04:44:10;;;;;;;50.15;37.70;;;;;;;2.70;64.14;102795.72;4992323;28;20108;-62
2021/12/16 04:46:38;;;;;;;49.40;38.65;;;;;;;2.70;64.12;102790.53;4991801;28;20043;-63
2021/12/16 04:49:07;;;;;;;48.97;38.08;;;;;;;2.68;64.15;102782.75;4990920;28;20486;-63
2021/12/16 04:51:38;;;;;;;48.75;36.67;;;;;;;2.72;64.05;102789.69;4992086;28;20062;-70
2021/12/16 04:54:06;;;;;;;49.45;37.72;;;;;;;2.75;63.91;102789.72;4991947;28;20046;-63
2021/12/16 04:56:35;;;;;;;43.05;36.03;;;;;;;2.73;63.85;102793.16;4991981;28;20046;-63
2021/12/16 04:59:08;;;;;;;50.30;37.15;;;;;;;2.69;63.82;102791.38;4991889;28;20407;-63
2021/12/16 05:01:36;;;;;;;42.72;34.60;;;;;;;2.67;64.02;102788.78;4991936;28;20050;-63
2021/12/16 05:04:04;;;;;;;44.55;35.00;;;;;;;2.67;64.02;102780.16;4991918;28;20081;-68
2021/12/16 05:06:31;;;;;;;44.70;34.83;;;;;;;2.64;64.02;102770.63;4990859;28;20043;-70
2021/12/16 05:08:58;;;;;;;43.15;35.10;;;;;;;2.63;63.90;102775.78;4991650;28;20050;-67
2021/12/16 05:11:26;;;;;;;46.38;35.95;;;;;;;2.57;64.03;102774.88;4991859;28;20046;-63
2021/12/16 05:13:53;;;;;;;51.80;38.08;;;;;;;2.57;64.00;102780.03;4991545;28;20046;-62
2021/12/16 05:16:20;;;;;;;47.42;35.03;;;;;;;2.59;63.82;102780.06;4990558;28;20043;-63
2021/12/16 05:18:46;;;;;;;42.95;35.40;;;;;;;2.59;63.86;102783.53;4991672;28;20069;-63
2021/12/16 05:21:47;;;;;;;45.33;35.03;;;;;;;2.58;64.04;102786.97;4990508;28;20050;-63
2021/12/16 05:24:25;;;;;;;45.67;35.38;;;;;;;2.58;64.12;102792.16;4991511;28;20478;-63
2021/12/16 05:27:07;;;;;;;44.35;34.88;;;;;;;2.59;63.90;102790.44;4991569;28;20046;-63
2021/12/16 05:29:33;;;;;;;43.85;33.72;;;;;;;2.60;63.99;102789.56;4991109;28;20047;-70
2021/12/16 05:32:01;;;;;;;42.47;34.15;;;;;;;2.59;63.92;102790.44;4991571;28;20054;-63
2021/12/16 05:34:27;;;;;;;40.92;34.08;;;;;;;2.53;63.93;102788.66;4991495;28;20051;-63
2021/12/16 05:36:55;;;;;;;43.25;34.25;;;;;;;2.52;64.19;102788.66;4989976;28;20050;-62
2021/12/16 05:39:22;;;;;;;42.47;34.35;;;;;;;2.51;63.82;102792.94;4991444;28;20054;-64
2021/12/16 05:41:49;;;;;;;42.92;34.38;;;;;;;2.51;63.90;102790.34;4990567;28;20050;-64
2021/12/16 05:44:17;;;;;;;47.03;34.50;;;;;;;2.50;63.76;102792.94;4990991;28;20057;-65
2021/12/16 05:46:45;;;;;;;43.78;34.45;;;;;;;2.49;63.55;102797.25;4990906;28;20050;-63
2021/12/16 05:49:13;;;;;;;43.70;33.58;;;;;;;2.45;63.61;102795.47;4991094;28;20053;-67
2021/12/16 05:51:42;;;;;;;44.78;34.42;;;;;;;2.42;63.60;102795.44;4991418;28;20406;-63
2021/12/16 05:54:10;;;;;;;41.30;33.47;;;;;;;2.42;63.63;102800.63;4990793;28;20050;-63
2021/12/16 05:56:38;;;;;;;42.22;34.20;;;;;;;2.37;63.61;102803.16;4989694;28;20043;-63
2021/12/16 05:59:07;;;;;;;46.13;33.83;;;;;;;2.38;63.50;102799.72;4990701;28;20046;-63
2021/12/16 06:01:36;;;;;;;41.15;32.70;;;;;;;2.42;63.55;102798.91;5001715;28;20066;-58
2021/12/16 06:04:03;;;;;;;45.03;34.47;;;;;;;2.44;63.28;102789.44;5005727;28;20053;-58
2021/12/16 06:06:30;;;;;;;42.78;33.88;;;;;;;2.42;63.56;102798.03;4990491;28;20050;-59
2021/12/16 06:08:58;;;;;;;43.17;34.30;;;;;;;2.41;63.33;102797.19;4990381;28;20093;-59
2021/12/16 06:11:30;;;;;;;42.30;34.20;;;;;;;2.42;63.11;102804.06;4990242;28;20049;-59
2021/12/16 06:14:40;;;;;;;42.97;35.10;;;;;;;2.42;63.26;102801.47;4989073;28;20058;-58
2021/12/16 06:28:25;;;;;;;42.85;33.33;;;;;;;2.38;63.38;102822.19;4987274;28;20053;-64
2021/12/16 06:30:52;;;;;;;44.60;32.00;;;;;;;2.37;63.33;102823.88;4990109;28;20042;-61
2021/12/16 06:33:22;;;;;;;45.10;33.67;;;;;;;2.36;63.41;102826.47;4990187;28;20038;-58
2021/12/16 06:35:52;;;;;;;41.08;32.95;;;;;;;2.33;63.46;102827.31;5006193;28;20058;-57
2021/12/16 06:38:22;;;;;;;42.47;33.17;;;;;;;2.32;63.56;102820.38;4989454;28;20046;-64
2021/12/16 06:40:49;;;;;;;45.25;33.25;;;;;;;2.37;63.39;102821.28;5011910;28;20073;-58
2021/12/16 06:43:18;;;;;;;41.63;32.55;;;;;;;2.32;63.41;102827.28;4988962;28;20046;-58
2021/12/16 06:45:48;;;;;;;42.83;33.35;;;;;;;2.34;63.47;102831.63;4990000;28;20117;-58
2021/12/16 06:48:20;;;;;;;42.45;34.17;;;;;;;2.34;63.54;102830.78;4989778;28;20043;-60
2021/12/16 06:53:27;;;;;;;44.80;34.58;;;;;;;2.33;63.53;102826.44;4988882;28;20053;-60
2021/12/16 06:56:05;;;;;;;41.08;33.38;;;;;;;2.27;63.63;102829.81;4992434;28;20053;-60
2021/12/16 06:58:42;;;;;;;44.90;34.40;;;;;;;2.25;63.83;102840.16;5006344;28;20293;-64
2021/12/16 07:01:18;;;;;;;42.88;34.22;;;;;;;2.28;63.58;102842.78;5003363;28;20499;-61
2021/12/16 07:03:49;;;;;;;43.00;32.60;;;;;;;2.34;63.30;102835.97;5006948;28;20054;-60
2021/12/16 07:06:20;;;;;;;40.55;33.40;;;;;;;2.31;63.53;102834.22;5007342;28;20085;-60
2021/12/16 07:08:49;;;;;;;44.28;33.90;;;;;;;2.29;63.42;102836.75;5007776;28;20068;-60
2021/12/16 07:11:17;;;;;;;44.05;34.38;;;;;;;2.29;63.51;102825.53;5005501;28;20057;-60
2021/12/16 07:13:56;;;;;;;41.38;33.30;;;;;;;2.33;63.46;102822.13;5005725;28;20049;-60
2021/12/16 07:16:25;;;;;;;44.55;34.45;;;;;;;2.35;63.31;102817.84;4995705;28;20046;-60
2021/12/16 07:18:55;;;;;;;42.80;32.88;;;;;;;2.39;63.20;102822.19;4988955;28;20051;-59
2021/12/16 07:21:24;;;;;;;45.00;33.83;;;;;;;2.43;63.02;102823.97;4986091;28;20046;-60
2021/12/16 07:23:54;;;;;;;39.15;32.47;;;;;;;2.50;63.13;102831.81;4992180;28;20051;-60
2021/12/16 07:26:21;;;;;;;45.47;35.60;;;;;;;2.54;62.88;102831.88;4988978;28;20410;-60
2021/12/16 07:28:48;;;;;;;47.00;34.95;;;;;;;2.55;63.05;102845.69;4989017;28;20047;-60
2021/12/16 07:31:15;;;;;;;45.28;34.33;;;;;;;2.58;63.04;102843.13;4988174;28;20093;-60
2021/12/16 07:33:42;;;;;;;43.83;33.65;;;;;;;2.59;63.00;102844.84;4987608;28;20142;-60
2021/12/16 07:36:09;;;;;;;40.45;33.60;;;;;;;2.64;62.85;102840.63;4988262;28;20058;-60
2021/12/16 07:38:37;;;;;;;43.67;32.03;;;;;;;2.63;62.95;102837.97;4988998;28;20410;-60
2021/12/16 07:41:04;;;;;;;43.08;33.70;;;;;;;2.66;62.74;102846.66;4988681;28;20061;-60
2021/12/16 07:43:53;;;;;;;43.65;32.08;;;;;;;2.68;62.80;102850.16;4990141;28;20096;-60
2021/12/16 07:46:18;;;;;;;45.63;33.30;;;;;;;2.73;62.53;102847.59;5006257;28;20057;-60
2021/12/16 07:48:45;;;;;;;38.78;32.10;;;;;;;2.75;62.50;102848.47;5001293;28;20544;-59
2021/12/16 07:51:12;;;;;;;38.20;31.13;;;;;;;2.80;62.56;102857.19;5003377;28;20050;-60
2021/12/16 07:53:43;;;;;;;44.53;33.60;;;;;;;2.80;62.51;102843.34;5001945;28;20487;-60
2021/12/16 07:56:10;;;;;;;39.03;31.75;;;;;;;2.78;62.61;102840.72;5005519;28;20100;-60
2021/12/16 07:58:37;;;;;;;43.17;33.05;;;;;;;2.85;62.41;102842.53;5004494;28;20101;-60
2021/12/16 08:01:05;;;;;;;44.03;33.13;;;;;;;2.85;62.58;102839.94;5005248;28;20045;-60
2021/12/16 08:03:35;;;;;;;43.38;33.40;;;;;;;2.78;62.70;102825.16;5005378;28;20050;-60
2021/12/16 08:06:08;;;;;;;40.90;31.90;;;;;;;2.81;62.87;102819.19;5004978;28;20410;-60
2021/12/16 08:08:35;;;;;;;45.75;34.92;;;;;;;2.84;62.80;102825.22;5009696;28;20045;-60
2021/12/16 08:11:04;;;;;;;45.15;35.13;;;;;;;2.93;62.78;102816.66;5005182;28;20043;-60
2021/12/16 08:13:32;;;;;;;48.25;34.17;;;;;;;3.05;62.60;102823.72;4992188;28;20108;-60
2021/12/16 08:15:59;;;;;;;45.08;35.15;;;;;;;3.13;62.57;102810.81;4992256;28;20046;-60
2021/12/16 08:18:26;;;;;;;43.67;34.35;;;;;;;3.23;62.24;102810.00;5010745;28;20140;-61
2021/12/16 08:20:53;;;;;;;45.40;33.53;;;;;;;3.37;62.10;102810.97;5007192;28;20041;-57
2021/12/16 08:23:20;;;;;;;48.47;35.25;;;;;;;3.38;62.09;102814.44;5001163;28;20454;-60
2021/12/16 08:25:47;;;;;;;45.03;34.88;;;;;;;3.39;62.14;102818.75;4992114;28;20142;-61
2021/12/16 08:28:21;;;;;;;49.03;35.00;;;;;;;3.33;62.21;102821.34;4999700;28;20042;-59
2021/12/16 08:30:52;;;;;;;53.30;39.00;;;;;;;3.37;62.40;102815.31;5009968;28;20093;-60
2021/12/16 08:33:19;;;;;;;53.90;41.05;;;;;;;3.56;62.12;102806.75;5009982;28;20054;-59
2021/12/16 08:35:50;;;;;;;58.95;40.90;;;;;;;3.73;61.46;102811.19;5010001;28;20061;-60
2021/12/16 08:38:20;;;;;;;51.90;38.58;;;;;;;3.98;60.80;102809.56;5004886;28;20046;-60
2021/12/16 08:40:49;;;;;;;49.17;36.80;;;;;;;4.02;61.07;102816.50;5008652;28;20050;-60
2021/12/16 08:43:16;;;;;;;52.92;36.58;;;;;;;4.12;60.92;102822.63;5007094;28;20050;-62
2021/12/16 08:45:44;;;;;;;50.67;37.55;;;;;;;3.95;61.27;102825.16;5009217;28;20041;-61
2021/12/16 08:48:12;;;;;;;56.67;40.55;;;;;;;3.69;62.02;102820.69;5008504;28;20049;-59
2021/12/16 08:50:46;;;;;;;54.67;38.60;;;;;;;3.74;62.27;102818.97;5003392;28;20046;-59
2021/12/16 08:53:15;;;;;;;53.40;39.17;;;;;;;3.71;62.32;102816.38;4994286;28;20046;-61
2021/12/16 08:55:44;;;;;;;52.28;37.72;;;;;;;3.77;62.48;102812.94;5007486;28;20048;-60
2021/12/16 08:58:11;;;;;;;56.25;39.53;;;;;;;3.92;61.91;102812.16;4990974;28;20058;-60
2021/12/16 09:00:53;;;;;;;54.80;40.08;;;;;;;3.83;62.26;102817.31;4991442;28;20053;-60
2021/12/16 09:03:20;;;;;;;61.50;41.10;;;;;;;3.67;62.84;102817.22;4991521;28;20104;-60
2021/12/16 09:05:47;;;;;;;78.38;52.97;;;;;;;3.77;62.69;102825.91;4991314;28;20049;-60
2021/12/16 09:08:15;;;;;;;68.35;47.25;;;;;;;3.78;62.75;102826.81;4992010;28;20050;-65
2021/12/16 09:10:42;;;;;;;84.80;55.65;;;;;;;3.91;62.60;102839.88;4991031;28;20058;-59
2021/12/16 09:13:12;;;;;;;140.55;93.78;;;;;;;4.17;62.14;102836.50;4989585;28;20064;-60
2021/12/16 09:15:46;;;;;;;129.57;88.38;;;;;;;4.52;61.37;102835.75;5001458;28;20407;-60
2021/12/16 09:18:16;;;;;;;86.78;61.35;;;;;;;4.56;61.45;102840.09;5007295;28;20038;-60
2021/12/16 09:20:43;;;;;;;157.27;102.40;;;;;;;4.63;61.38;102832.31;5008261;28;20088;-60
2021/12/16 09:23:11;;;;;;;210.57;125.53;;;;;;;4.69;61.12;102824.53;5005102;28;20081;-60
2021/12/16 09:25:41;;;;;;;167.15;102.10;;;;;;;5.02;60.65;102835.84;5008495;28;20048;-60
2021/12/16 09:28:08;;;;;;;119.90;76.55;;;;;;;5.25;60.20;102828.03;5007014;28;20046;-60
2021/12/16 09:30:35;;;;;;;80.38;54.00;;;;;;;5.77;58.98;102824.47;5009822;28;20042;-64
2021/12/16 09:33:05;;;;;;;81.60;53.83;;;;;;;6.20;58.19;102813.91;4999776;28;20133;-60
2021/12/16 09:35:34;;;;;;;65.03;44.38;;;;;;;6.42;57.53;102819.00;5007813;28;20042;-60
2021/12/16 09:38:03;;;;;;;98.40;60.30;;;;;;;6.63;57.38;102825.00;5006029;28;20042;-63
2021/12/16 09:40:34;;;;;;;73.82;48.75;;;;;;;6.90;56.76;102825.66;5008735;28;20046;-63
2021/12/16 09:43:03;;;;;;;67.78;43.92;;;;;;;7.11;56.50;102802.00;5008064;28;20050;-61
2021/12/16 09:45:51;;;;;;;63.42;45.17;;;;;;;7.38;56.18;102802.63;5005881;28;20126;-61
2021/12/16 09:48:18;;;;;;;93.55;64.43;;;;;;;7.61;55.62;102793.69;5006157;28;20479;-60
2021/12/16 09:50:46;;;;;;;75.35;54.08;;;;;;;7.76;55.63;102796.09;4990524;28;20053;-60
2021/12/16 09:53:13;;;;;;;103.85;72.75;;;;;;;7.91;55.44;102800.28;4990159;28;20043;-63
2021/12/16 09:55:40;;;;;;;96.85;62.70;;;;;;;8.01;55.24;102782.72;4990237;28;20046;-63
2021/12/16 09:58:07;;;;;;;83.63;61.05;;;;;;;8.15;55.18;102774.69;4990033;28;20058;-60
2021/12/16 10:00:35;;;;;;;77.63;57.38;;;;;;;8.33;54.90;102778.81;4991437;28;20103;-61
2021/12/16 10:03:04;;;;;;;97.72;67.57;;;;;;;8.45;54.77;102773.41;4989255;28;20209;-63
2021/12/16 10:05:34;;;;;;;55.28;42.13;;;;;;;8.60;54.61;102776.72;4990059;28;20410;-61
2021/12/16 10:08:05;;;;;;;58.95;42.50;;;;;;;8.75;54.46;102779.09;4990450;28;20046;-60
2021/12/16 10:10:32;;;;;;;52.92;41.15;;;;;;;8.89;54.25;102784.09;4990255;28;20053;-61
2021/12/16 10:13:01;;;;;;;56.28;41.58;;;;;;;9.01;54.02;102764.69;4990091;28;20050;-61
2021/12/16 10:18:00;;;;;;;89.25;53.95;;;;;;;9.23;53.85;102766.91;4990246;28;20117;-60
2021/12/16 10:20:34;;;;;;;57.53;41.55;;;;;;;9.25;53.91;102755.53;4988933;28;20046;-60
2021/12/16 10:23:29;;;;;;;60.38;42.17;;;;;;;9.31;53.88;102757.19;4988155;28;20050;-60
2021/12/16 10:26:06;;;;;;;52.10;40.30;;;;;;;9.40;53.82;102753.53;4990624;28;20441;-60
2021/12/16 10:28:36;;;;;;;90.35;55.22;;;;;;;9.55;53.81;102758.47;5004952;28;20034;-60
2021/12/16 10:31:07;;;;;;;51.97;40.88;;;;;;;9.65;53.66;102751.28;5005523;28;20049;-60
2021/12/16 10:33:49;;;;;;;51.58;38.95;;;;;;;9.72;53.71;102745.00;5006659;28;20401;-63
2021/12/16 10:36:22;;;;;;;46.95;36.58;;;;;;;9.78;53.78;102744.88;5000181;28;20061;-62
2021/12/16 10:38:56;;;;;;;51.83;38.88;;;;;;;9.85;53.72;102735.09;5000448;28;20053;-63
2021/12/16 10:41:36;;;;;;;54.75;39.72;;;;;;;9.86;53.94;102731.59;4989412;28;20053;-63
2021/12/16 10:44:17;;;;;;;51.92;38.00;;;;;;;9.83;54.02;102730.78;4989570;28;20061;-62
2021/12/16 10:46:49;;;;;;;53.28;40.33;;;;;;;9.70;54.51;102741.56;4991528;28;20145;-62
2021/12/16 10:49:18;;;;;;;48.67;37.80;;;;;;;9.75;54.52;102733.59;4997969;28;20505;-60
2021/12/16 10:51:49;;;;;;;48.78;37.88;;;;;;;9.66;54.81;102729.38;4990282;28;20073;-66
2021/12/16 10:54:23;;;;;;;55.10;40.83;;;;;;;9.58;55.07;102726.94;4989674;28;20046;-62
2021/12/16 10:57:04;;;;;;;50.63;39.45;;;;;;;9.37;55.72;102716.88;4989099;28;20498;-62
2021/12/16 10:59:33;;;;;;;51.92;40.42;;;;;;;9.18;56.35;102717.25;4981016;28;20050;-62
2021/12/16 11:02:06;;;;;;;55.95;42.70;;;;;;;8.95;56.89;102731.63;4989342;28;20050;-62
2021/12/16 11:04:32;;;;;;;61.20;44.65;;;;;;;8.71;57.69;102721.56;4989293;28;20506;-62
2021/12/16 11:06:59;;;;;;;62.65;43.85;;;;;;;8.48;58.23;102717.56;4989913;28;20042;-62
2021/12/16 11:09:43;;;;;;;61.97;45.13;;;;;;;8.30;59.04;102724.81;5006138;28;20399;-60
2021/12/16 11:12:16;;;;;;;63.47;43.50;;;;;;;7.93;59.95;102721.84;4995348;28;20073;-62
2021/12/16 11:14:47;;;;;;;60.88;43.67;;;;;;;7.71;60.83;102721.25;4975746;28;20050;-62
2021/12/16 11:17:16;;;;;;;63.67;42.97;;;;;;;7.61;61.35;102718.75;4993426;28;20038;-67
2021/12/16 11:19:51;;;;;;;65.10;44.78;;;;;;;7.52;61.47;102717.13;5005249;28;20046;-62
2021/12/16 11:22:23;;;;;;;57.17;42.38;;;;;;;7.28;62.33;102709.56;4995676;28;20423;-62
2021/12/16 11:24:53;;;;;;;61.33;43.15;;;;;;;7.24;62.67;102710.47;4987870;28;20046;-62
2021/12/16 11:27:22;;;;;;;55.25;41.00;;;;;;;7.21;62.71;102716.59;4988317;28;20061;-61
2021/12/16 11:29:49;;;;;;;60.50;42.45;;;;;;;6.96;63.42;102722.06;4988823;28;20061;-62
2021/12/16 11:32:35;;;;;;;55.45;41.47;;;;;;;7.06;63.43;102714.16;4989367;28;20042;-62
2021/12/16 11:35:22;;;;;;;;;;;;;;;7.06;63.55;102712.41;4989232;28;20053;-61
2021/12/16 11:37:49;;;;;;;55.83;40.15;;;;;;;6.94;63.82;102713.38;4988808;28;19926;-62
2021/12/16 11:40:18;;;;;;;58.72;42.30;;;;;;;6.99;63.86;102716.81;4999298;28;20119;-62
2021/12/16 11:43:05;;;;;;;58.45;42.30;;;;;;;7.00;63.98;102721.16;4998274;28;20081;-62
2021/12/16 11:45:38;;;;;;;54.53;40.92;;;;;;;7.08;63.93;102718.47;4992845;28;20046;-62
2021/12/16 11:48:07;;;;;;;54.75;41.25;;;;;;;7.03;64.02;102709.81;4992918;28;20046;-62
2021/12/16 11:50:44;;;;;;;56.50;41.67;;;;;;;7.12;64.08;102714.97;4994936;28;20050;-62
2021/12/16 11:53:11;;;;;;;55.05;40.08;;;;;;;7.19;64.07;102719.22;4991718;28;20046;-61
2021/12/16 11:55:39;;;;;;;55.08;40.70;;;;;;;7.08;64.35;102713.25;4992563;28;20046;-62
2021/12/16 11:58:07;;;;;;;56.00;41.22;;;;;;;7.13;64.37;102718.44;4992501;28;20058;-62
2021/12/16 12:00:40;;;;;;;52.20;41.10;;;;;;;7.12;64.52;102719.31;4991719;28;20046;-62
2021/12/16 12:03:10;;;;;;;56.17;40.67;;;;;;;7.09;64.53;102704.53;4992579;28;20058;-61
2021/12/16 12:05:40;;;;;;;50.15;39.08;;;;;;;7.06;64.79;102715.03;4992236;28;20049;-61
2021/12/16 12:08:21;;;;;;;53.40;38.97;;;;;;;7.07;64.92;102721.09;4992416;28;20050;-59
2021/12/16 12:10:50;;;;;;;53.08;38.50;;;;;;;7.08;64.92;102710.63;4991795;28;20592;-59
2021/12/16 12:13:25;;;;;;;48.63;37.60;;;;;;;7.72;63.28;102715.13;4993075;28;20487;-59
2021/12/16 12:16:14;;;;;;;55.47;40.45;;;;;;;7.40;64.07;102719.00;4994079;28;20046;-59
2021/12/16 12:18:53;;;;;;;60.25;40.88;;;;;;;7.31;64.54;102710.41;4987920;28;20046;-64
2021/12/16 12:21:41;;;;;;;61.28;41.78;;;;;;;7.22;64.79;102709.63;4989541;28;20486;-61
2021/12/16 12:24:11;;;;;;;56.60;41.00;;;;;;;7.12;65.06;102711.47;4993216;28;20058;-61
2021/12/16 12:26:43;;;;;;;60.58;43.03;;;;;;;6.99;65.57;102708.13;4991945;28;20046;-71
2021/12/16 12:29:16;;;;;;;56.63;40.58;;;;;;;6.94;65.51;102713.38;4991320;28;20046;-69
2021/12/16 12:31:48;;;;;;;54.92;40.67;;;;;;;6.92;65.70;102703.84;4991319;28;20053;-62
2021/12/16 12:34:16;;;;;;;63.33;42.10;;;;;;;6.94;65.39;102696.88;4988884;28;20050;-67
2021/12/16 12:36:45;;;;;;;63.78;42.00;;;;;;;6.93;65.68;102698.63;4995436;28;20058;-69
2021/12/16 12:39:16;;;;;;;58.25;42.20;;;;;;;6.93;65.70;102698.63;5004055;28;20052;-71
2021/12/16 12:41:44;;;;;;;64.78;43.30;;;;;;;6.90;65.72;102703.84;4999144;28;20042;-60
2021/12/16 12:44:12;;;;;;;61.45;41.90;;;;;;;6.89;65.96;102702.13;5004518;28;20048;-60
2021/12/16 12:46:40;;;;;;;62.90;43.08;;;;;;;6.88;65.75;102700.38;5002426;28;20042;-61
2021/12/16 12:49:11;;;;;;;68.32;44.25;;;;;;;7.01;65.69;102702.00;4997824;28;20062;-60
2021/12/16 12:51:45;;;;;;;70.70;45.13;;;;;;;7.01;65.63;102698.56;4991811;28;20046;-65
2021/12/16 12:54:17;;;;;;;70.30;46.20;;;;;;;6.97;65.78;102696.81;4988126;28;20050;-61
2021/12/16 12:56:45;;;;;;;73.97;47.38;;;;;;;7.13;65.55;102700.16;4990130;28;20061;-61
2021/12/16 12:59:16;;;;;;;77.07;48.58;;;;;;;7.22;65.29;102692.22;4992794;28;20038;-60
2021/12/16 13:01:55;;;;;;;70.32;45.67;;;;;;;7.09;65.56;102694.09;4995231;28;20065;-61
2021/12/16 13:04:42;;;;;;;64.88;44.13;;;;;;;6.99;66.10;102697.69;4998920;28;20054;-61
2021/12/16 13:07:10;;;;;;;;;;;;;;;7.10;65.83;102702.81;4985486;28;20046;-60
2021/12/16 13:09:49;;;;;;;65.68;43.17;;;;;;;7.05;65.52;102697.63;4991122;28;20370;-60
2021/12/16 13:12:51;;;;;;;63.72;41.67;;;;;;;6.91;66.02;102694.28;4995459;28;20061;-59
2021/12/16 13:16:18;;;;;;;62.75;41.88;;;;;;;6.90;66.21;102698.63;4991299;28;20057;-60
2021/12/16 13:23:39;;;;;;;62.00;40.78;;;;;;;6.49;67.04;102703.34;5005497;28;20054;-64
2021/12/16 13:26:36;;;;;;;65.50;42.72;;;;;;;6.44;67.46;102701.66;5004346;28;20046;-59
2021/12/16 13:29:33;;;;;;;64.95;41.63;;;;;;;6.45;67.50;102712.06;4990044;28;20046;-58
2021/12/16 13:32:24;;;;;;;58.47;38.55;;;;;;;6.48;67.49;102714.66;4990615;28;20047;-59
2021/12/16 13:35:04;;;;;;;62.45;41.38;;;;;;;6.51;67.58;102708.53;4987534;28;20050;-61
2021/12/16 13:37:32;;;;;;;61.17;40.47;;;;;;;6.60;67.25;102713.72;4990491;28;20062;-67
2021/12/16 13:40:08;;;;;;;60.00;41.25;;;;;;;6.60;67.53;102721.53;4990507;28;20054;-60
2021/12/16 13:42:44;;;;;;;;;;;;;;;6.49;67.81;102729.44;4991168;28;20494;-60
2021/12/16 13:45:20;;;;;;;57.47;38.25;;;;;;;6.48;67.94;102734.66;4990101;28;19929;-60
2021/12/16 14:02:48;;;;;;;68.10;41.22;;;;;;;6.23;68.74;102741.78;4990440;28;20414;-75
2021/12/16 14:07:57;;;;;;;62.47;40.92;;;;;;;6.18;68.81;102753.09;4991878;28;20046;-63
2021/12/16 14:10:43;;;;;;;63.80;40.25;;;;;;;6.11;68.88;102746.19;4991488;28;20046;-59
2021/12/16 14:16:57;;;;;;;67.15;40.38;;;;;;;6.01;69.53;102755.78;5001082;28;20091;-60
2021/12/16 14:36:02;;;;;;;62.03;37.80;;;;;;;5.69;70.36;102775.00;5007664;28;20447;-61
2021/12/16 14:49:41;;;;;;;;;;;;;;;5.63;70.87;102772.41;4990017;28;20050;-64
2021/12/16 14:52:23;;;;;;;66.70;39.90;;;;;;;5.55;71.05;102774.19;5005127;28;20040;-61
2021/12/16 14:54:59;;;;;;;64.75;38.17;;;;;;;5.56;70.87;102781.09;4998729;28;20050;-61
2021/12/16 14:57:30;;;;;;;55.72;36.13;;;;;;;5.46;71.31;102785.47;4997838;28;20056;-60